sensor_id;sensor_type;location;lat;lon;timestamp;temperature;humidity
23186;DHT22;11761;51.324;4.590;2022-07-03T00:01:46;14.20;99.90
23186;DHT22;11761;51.324;4.590;2022-07-03T00:04:13;14.10;99.90
23186;DHT22;11761;51.324;4.590;2022-07-03T00:06:39;14.10;99.90
23186;DHT22;11761;51.324;4.590;2022-07-03T00:09:06;14.10;99.90
23186;DHT22;11761;51.324;4.590;2022-07-03T00:11:32;14.10;99.90
23186;DHT22;11761;51.324;4.590;2022-07-03T00:13:59;14.00;99.90
23186;DHT22;11761;51.324;4.590;2022-07-03T00:16:26;14.00;99.90
23186;DHT22;11761;51.324;4.590;2022-07-03T00:18:52;13.90;99.90
23186;DHT22;11761;51.324;4.590;2022-07-03T00:21:34;13.80;99.90
23186;DHT22;11761;51.324;4.590;2022-07-03T00:24:08;13.80;99.90
23186;DHT22;11761;51.324;4.590;2022-07-03T00:26:39;13.80;99.90
23186;DHT22;11761;51.324;4.590;2022-07-03T00:29:05;13.70;99.90
23186;DHT22;11761;51.324;4.590;2022-07-03T00:31:33;13.70;99.90
23186;DHT22;11761;51.324;4.590;2022-07-03T00:34:00;13.60;99.90
23186;DHT22;11761;51.324;4.590;2022-07-03T00:36:33;13.60;99.90
23186;DHT22;11761;51.324;4.590;2022-07-03T00:39:01;13.50;99.90
23186;DHT22;11761;51.324;4.590;2022-07-03T00:41:32;13.50;99.90
23186;DHT22;11761;51.324;4.590;2022-07-03T00:43:59;13.50;99.90
23186;DHT22;11761;51.324;4.590;2022-07-03T00:46:28;13.40;99.90
23186;DHT22;11761;51.324;4.590;2022-07-03T00:48:56;13.40;99.90
23186;DHT22;11761;51.324;4.590;2022-07-03T00:51:27;13.40;99.90
23186;DHT22;11761;51.324;4.590;2022-07-03T00:53:56;13.40;99.90
23186;DHT22;11761;51.324;4.590;2022-07-03T00:56:25;13.40;99.90
23186;DHT22;11761;51.324;4.590;2022-07-03T00:58:54;13.40;99.90
23186;DHT22;11761;51.324;4.590;2022-07-03T01:01:22;13.40;99.90
23186;DHT22;11761;51.324;4.590;2022-07-03T01:07:00;13.40;99.90
23186;DHT22;11761;51.324;4.590;2022-07-03T01:09:54;13.40;99.90
23186;DHT22;11761;51.324;4.590;2022-07-03T01:15:11;13.40;99.90
23186;DHT22;11761;51.324;4.590;2022-07-03T01:17:51;13.40;99.90
23186;DHT22;11761;51.324;4.590;2022-07-03T01:20:21;13.40;99.90
23186;DHT22;11761;51.324;4.590;2022-07-03T01:22:54;13.40;99.90
23186;DHT22;11761;51.324;4.590;2022-07-03T01:28:15;13.50;99.90
23186;DHT22;11761;51.324;4.590;2022-07-03T01:30:53;13.50;99.90
23186;DHT22;11761;51.324;4.590;2022-07-03T01:33:23;13.50;99.90
23186;DHT22;11761;51.324;4.590;2022-07-03T01:38:28;13.40;99.90
23186;DHT22;11761;51.324;4.590;2022-07-03T01:40:56;13.30;99.90
23186;DHT22;11761;51.324;4.590;2022-07-03T01:43:36;13.30;99.90
23186;DHT22;11761;51.324;4.590;2022-07-03T01:46:04;13.30;99.90
23186;DHT22;11761;51.324;4.590;2022-07-03T01:48:32;13.20;99.90
23186;DHT22;11761;51.324;4.590;2022-07-03T01:50:59;13.20;99.90
23186;DHT22;11761;51.324;4.590;2022-07-03T01:53:29;13.20;99.90
23186;DHT22;11761;51.324;4.590;2022-07-03T01:56:03;13.20;99.90
23186;DHT22;11761;51.324;4.590;2022-07-03T01:58:32;13.10;99.90
23186;DHT22;11761;51.324;4.590;2022-07-03T02:03:42;13.10;99.90
23186;DHT22;11761;51.324;4.590;2022-07-03T02:07:01;13.10;99.90
23186;DHT22;11761;51.324;4.590;2022-07-03T02:09:09;13.20;99.90
23186;DHT22;11761;51.324;4.590;2022-07-03T02:11:39;13.20;99.90
23186;DHT22;11761;51.324;4.590;2022-07-03T02:14:25;13.20;99.90
23186;DHT22;11761;51.324;4.590;2022-07-03T02:19:48;13.30;99.90
23186;DHT22;11761;51.324;4.590;2022-07-03T02:22:26;13.30;99.90
23186;DHT22;11761;51.324;4.590;2022-07-03T02:25:07;13.30;99.90
23186;DHT22;11761;51.324;4.590;2022-07-03T02:27:57;13.30;99.90
23186;DHT22;11761;51.324;4.590;2022-07-03T02:30:28;13.40;99.90
23186;DHT22;11761;51.324;4.590;2022-07-03T02:32:57;13.40;99.90
23186;DHT22;11761;51.324;4.590;2022-07-03T02:35:29;13.40;99.90
23186;DHT22;11761;51.324;4.590;2022-07-03T02:38:09;13.40;99.90
23186;DHT22;11761;51.324;4.590;2022-07-03T02:46:14;13.30;99.90
23186;DHT22;11761;51.324;4.590;2022-07-03T02:51:50;13.30;99.90
23186;DHT22;11761;51.324;4.590;2022-07-03T02:54:20;13.40;99.90
23186;DHT22;11761;51.324;4.590;2022-07-03T02:57:08;13.40;99.90
23186;DHT22;11761;51.324;4.590;2022-07-03T03:02:55;13.30;99.90
23186;DHT22;11761;51.324;4.590;2022-07-03T03:05:28;13.30;99.90
23186;DHT22;11761;51.324;4.590;2022-07-03T03:08:05;13.30;99.90
23186;DHT22;11761;51.324;4.590;2022-07-03T03:10:38;13.30;99.90
23186;DHT22;11761;51.324;4.590;2022-07-03T03:13:11;13.40;99.90
23186;DHT22;11761;51.324;4.590;2022-07-03T03:15:39;13.30;99.90
23186;DHT22;11761;51.324;4.590;2022-07-03T03:18:11;13.30;99.90
23186;DHT22;11761;51.324;4.590;2022-07-03T03:20:39;13.40;99.90
23186;DHT22;11761;51.324;4.590;2022-07-03T03:25:53;13.30;99.90
23186;DHT22;11761;51.324;4.590;2022-07-03T03:28:20;13.30;99.90
23186;DHT22;11761;51.324;4.590;2022-07-03T03:30:48;13.30;99.90
23186;DHT22;11761;51.324;4.590;2022-07-03T03:33:14;13.30;99.90
23186;DHT22;11761;51.324;4.590;2022-07-03T03:35:42;13.30;99.90
23186;DHT22;11761;51.324;4.590;2022-07-03T03:38:08;13.20;99.90
23186;DHT22;11761;51.324;4.590;2022-07-03T03:40:35;13.20;99.90
23186;DHT22;11761;51.324;4.590;2022-07-03T03:43:02;13.20;99.90
23186;DHT22;11761;51.324;4.590;2022-07-03T03:45:29;13.20;99.90
23186;DHT22;11761;51.324;4.590;2022-07-03T03:47:55;13.20;99.90
23186;DHT22;11761;51.324;4.590;2022-07-03T03:50:22;13.20;99.90
23186;DHT22;11761;51.324;4.590;2022-07-03T03:52:48;13.20;99.90
23186;DHT22;11761;51.324;4.590;2022-07-03T03:55:15;13.20;99.90
23186;DHT22;11761;51.324;4.590;2022-07-03T03:57:41;13.20;99.90
23186;DHT22;11761;51.324;4.590;2022-07-03T04:00:08;13.20;99.90
23186;DHT22;11761;51.324;4.590;2022-07-03T04:02:34;13.20;99.90
23186;DHT22;11761;51.324;4.590;2022-07-03T04:05:00;13.20;99.90
23186;DHT22;11761;51.324;4.590;2022-07-03T04:07:26;13.20;99.90
23186;DHT22;11761;51.324;4.590;2022-07-03T04:09:53;13.20;99.90
23186;DHT22;11761;51.324;4.590;2022-07-03T04:12:19;13.20;99.90
23186;DHT22;11761;51.324;4.590;2022-07-03T04:14:45;13.10;99.90
23186;DHT22;11761;51.324;4.590;2022-07-03T04:17:11;13.20;99.90
23186;DHT22;11761;51.324;4.590;2022-07-03T04:19:38;13.20;99.90
23186;DHT22;11761;51.324;4.590;2022-07-03T04:22:04;13.20;99.90
23186;DHT22;11761;51.324;4.590;2022-07-03T04:24:35;13.20;99.90
23186;DHT22;11761;51.324;4.590;2022-07-03T04:27:02;13.20;99.90
23186;DHT22;11761;51.324;4.590;2022-07-03T04:29:28;13.20;99.90
23186;DHT22;11761;51.324;4.590;2022-07-03T04:31:54;13.20;99.90
23186;DHT22;11761;51.324;4.590;2022-07-03T04:34:21;13.20;99.90
23186;DHT22;11761;51.324;4.590;2022-07-03T04:36:47;13.20;99.90
23186;DHT22;11761;51.324;4.590;2022-07-03T04:39:13;13.30;99.90
23186;DHT22;11761;51.324;4.590;2022-07-03T04:41:39;13.30;99.90
23186;DHT22;11761;51.324;4.590;2022-07-03T04:44:05;13.30;99.90
23186;DHT22;11761;51.324;4.590;2022-07-03T04:46:32;13.40;99.90
23186;DHT22;11761;51.324;4.590;2022-07-03T04:48:58;13.60;99.90
23186;DHT22;11761;51.324;4.590;2022-07-03T04:51:24;13.70;99.90
23186;DHT22;11761;51.324;4.590;2022-07-03T04:53:51;13.90;99.90
23186;DHT22;11761;51.324;4.590;2022-07-03T04:56:17;14.10;99.90
23186;DHT22;11761;51.324;4.590;2022-07-03T04:58:43;14.30;99.90
23186;DHT22;11761;51.324;4.590;2022-07-03T05:01:10;14.30;99.90
23186;DHT22;11761;51.324;4.590;2022-07-03T05:03:37;14.40;99.90
23186;DHT22;11761;51.324;4.590;2022-07-03T05:06:03;14.50;99.90
23186;DHT22;11761;51.324;4.590;2022-07-03T05:08:29;14.60;99.90
23186;DHT22;11761;51.324;4.590;2022-07-03T05:10:56;14.80;99.90
23186;DHT22;11761;51.324;4.590;2022-07-03T05:13:22;15.00;99.90
23186;DHT22;11761;51.324;4.590;2022-07-03T05:15:49;15.00;99.90
23186;DHT22;11761;51.324;4.590;2022-07-03T05:18:15;15.00;99.90
23186;DHT22;11761;51.324;4.590;2022-07-03T05:20:41;15.10;99.90
23186;DHT22;11761;51.324;4.590;2022-07-03T05:23:07;15.10;99.90
23186;DHT22;11761;51.324;4.590;2022-07-03T05:25:34;15.00;99.90
23186;DHT22;11761;51.324;4.590;2022-07-03T05:28:01;15.00;99.90
23186;DHT22;11761;51.324;4.590;2022-07-03T05:30:47;15.00;99.90
23186;DHT22;11761;51.324;4.590;2022-07-03T05:33:13;15.00;99.90
23186;DHT22;11761;51.324;4.590;2022-07-03T05:35:39;15.00;99.90
23186;DHT22;11761;51.324;4.590;2022-07-03T05:38:05;15.30;99.90
23186;DHT22;11761;51.324;4.590;2022-07-03T05:40:32;15.60;99.90
23186;DHT22;11761;51.324;4.590;2022-07-03T05:42:58;15.80;99.90
23186;DHT22;11761;51.324;4.590;2022-07-03T05:45:24;16.10;99.90
23186;DHT22;11761;51.324;4.590;2022-07-03T05:47:50;16.30;99.90
23186;DHT22;11761;51.324;4.590;2022-07-03T05:50:16;16.50;99.90
23186;DHT22;11761;51.324;4.590;2022-07-03T05:52:43;16.40;99.90
23186;DHT22;11761;51.324;4.590;2022-07-03T05:55:09;16.50;99.90
23186;DHT22;11761;51.324;4.590;2022-07-03T05:57:36;16.50;99.90
23186;DHT22;11761;51.324;4.590;2022-07-03T06:00:03;16.70;99.90
23186;DHT22;11761;51.324;4.590;2022-07-03T06:02:30;17.10;99.90
23186;DHT22;11761;51.324;4.590;2022-07-03T06:04:57;18.00;99.90
23186;DHT22;11761;51.324;4.590;2022-07-03T06:07:23;18.50;99.90
23186;DHT22;11761;51.324;4.590;2022-07-03T06:09:49;18.20;99.90
23186;DHT22;11761;51.324;4.590;2022-07-03T06:12:16;19.00;99.90
23186;DHT22;11761;51.324;4.590;2022-07-03T06:14:42;21.40;99.90
23186;DHT22;11761;51.324;4.590;2022-07-03T06:17:08;22.40;99.90
23186;DHT22;11761;51.324;4.590;2022-07-03T06:19:34;22.10;99.90
23186;DHT22;11761;51.324;4.590;2022-07-03T06:22:04;19.40;99.90
23186;DHT22;11761;51.324;4.590;2022-07-03T06:24:30;19.40;99.90
23186;DHT22;11761;51.324;4.590;2022-07-03T06:26:56;19.90;99.90
23186;DHT22;11761;51.324;4.590;2022-07-03T06:29:22;19.70;99.90
23186;DHT22;11761;51.324;4.590;2022-07-03T06:31:48;19.60;99.90
23186;DHT22;11761;51.324;4.590;2022-07-03T06:34:15;20.00;99.90
23186;DHT22;11761;51.324;4.590;2022-07-03T06:36:41;20.20;99.90
23186;DHT22;11761;51.324;4.590;2022-07-03T06:39:07;22.80;99.90
23186;DHT22;11761;51.324;4.590;2022-07-03T06:41:33;23.80;99.90
23186;DHT22;11761;51.324;4.590;2022-07-03T06:43:59;22.30;99.90
23186;DHT22;11761;51.324;4.590;2022-07-03T06:46:25;24.90;99.90
23186;DHT22;11761;51.324;4.590;2022-07-03T06:48:52;26.10;99.90
23186;DHT22;11761;51.324;4.590;2022-07-03T06:51:18;26.70;99.90
23186;DHT22;11761;51.324;4.590;2022-07-03T06:53:44;26.40;99.90
23186;DHT22;11761;51.324;4.590;2022-07-03T06:56:10;26.90;99.90
23186;DHT22;11761;51.324;4.590;2022-07-03T06:58:37;26.80;99.90
23186;DHT22;11761;51.324;4.590;2022-07-03T07:01:03;27.40;99.90
23186;DHT22;11761;51.324;4.590;2022-07-03T07:03:29;26.70;99.90
23186;DHT22;11761;51.324;4.590;2022-07-03T07:05:55;27.20;99.90
23186;DHT22;11761;51.324;4.590;2022-07-03T07:08:22;27.10;99.90
23186;DHT22;11761;51.324;4.590;2022-07-03T07:10:48;25.60;99.90
23186;DHT22;11761;51.324;4.590;2022-07-03T07:13:14;22.00;99.90
23186;DHT22;11761;51.324;4.590;2022-07-03T07:15:40;20.10;99.90
23186;DHT22;11761;51.324;4.590;2022-07-03T07:18:06;19.70;99.90
23186;DHT22;11761;51.324;4.590;2022-07-03T07:20:33;19.30;99.90
23186;DHT22;11761;51.324;4.590;2022-07-03T07:22:59;18.70;99.90
23186;DHT22;11761;51.324;4.590;2022-07-03T07:25:25;18.60;99.90
23186;DHT22;11761;51.324;4.590;2022-07-03T07:27:51;18.50;99.90
23186;DHT22;11761;51.324;4.590;2022-07-03T07:30:18;18.40;99.90
23186;DHT22;11761;51.324;4.590;2022-07-03T07:32:44;18.50;99.90
23186;DHT22;11761;51.324;4.590;2022-07-03T07:35:10;18.40;99.90
23186;DHT22;11761;51.324;4.590;2022-07-03T07:37:36;18.30;99.90
23186;DHT22;11761;51.324;4.590;2022-07-03T07:40:03;18.30;99.90
23186;DHT22;11761;51.324;4.590;2022-07-03T07:42:30;18.20;99.90
23186;DHT22;11761;51.324;4.590;2022-07-03T07:44:56;18.30;99.90
23186;DHT22;11761;51.324;4.590;2022-07-03T07:47:22;18.40;99.90
23186;DHT22;11761;51.324;4.590;2022-07-03T07:49:48;18.40;99.90
23186;DHT22;11761;51.324;4.590;2022-07-03T07:52:15;18.40;99.90
23186;DHT22;11761;51.324;4.590;2022-07-03T07:54:41;18.50;99.90
23186;DHT22;11761;51.324;4.590;2022-07-03T07:57:07;18.60;99.90
23186;DHT22;11761;51.324;4.590;2022-07-03T07:59:34;18.80;99.90
23186;DHT22;11761;51.324;4.590;2022-07-03T08:02:00;18.80;99.90
23186;DHT22;11761;51.324;4.590;2022-07-03T08:04:45;18.70;99.90
23186;DHT22;11761;51.324;4.590;2022-07-03T08:07:30;18.60;99.90
23186;DHT22;11761;51.324;4.590;2022-07-03T08:09:56;18.60;99.90
23186;DHT22;11761;51.324;4.590;2022-07-03T08:12:22;18.70;99.90
23186;DHT22;11761;51.324;4.590;2022-07-03T08:14:48;18.90;99.90
23186;DHT22;11761;51.324;4.590;2022-07-03T08:17:14;19.00;99.90
23186;DHT22;11761;51.324;4.590;2022-07-03T08:19:41;19.10;99.90
23186;DHT22;11761;51.324;4.590;2022-07-03T08:22:07;19.20;99.90
23186;DHT22;11761;51.324;4.590;2022-07-03T08:24:33;19.10;99.90
23186;DHT22;11761;51.324;4.590;2022-07-03T08:26:59;19.10;99.90
23186;DHT22;11761;51.324;4.590;2022-07-03T08:29:25;19.40;99.90
23186;DHT22;11761;51.324;4.590;2022-07-03T08:31:53;19.70;99.90
23186;DHT22;11761;51.324;4.590;2022-07-03T08:34:19;19.40;99.90
23186;DHT22;11761;51.324;4.590;2022-07-03T08:36:46;19.20;99.90
23186;DHT22;11761;51.324;4.590;2022-07-03T08:39:13;19.10;99.90
23186;DHT22;11761;51.324;4.590;2022-07-03T08:41:40;19.00;99.90
23186;DHT22;11761;51.324;4.590;2022-07-03T08:44:12;19.20;99.90
23186;DHT22;11761;51.324;4.590;2022-07-03T08:46:39;19.30;99.90
23186;DHT22;11761;51.324;4.590;2022-07-03T08:49:06;19.50;99.90
23186;DHT22;11761;51.324;4.590;2022-07-03T08:51:34;19.50;99.90
23186;DHT22;11761;51.324;4.590;2022-07-03T08:54:01;19.80;99.90
23186;DHT22;11761;51.324;4.590;2022-07-03T08:56:28;20.10;99.90
23186;DHT22;11761;51.324;4.590;2022-07-03T08:58:56;20.90;99.90
23186;DHT22;11761;51.324;4.590;2022-07-03T09:01:24;21.30;99.90
23186;DHT22;11761;51.324;4.590;2022-07-03T09:03:51;20.90;99.90
23186;DHT22;11761;51.324;4.590;2022-07-03T09:06:18;20.20;99.90
23186;DHT22;11761;51.324;4.590;2022-07-03T09:08:46;19.70;99.90
23186;DHT22;11761;51.324;4.590;2022-07-03T09:11:13;19.60;99.90
23186;DHT22;11761;51.324;4.590;2022-07-03T09:13:39;19.50;99.90
23186;DHT22;11761;51.324;4.590;2022-07-03T09:16:05;19.60;99.90
23186;DHT22;11761;51.324;4.590;2022-07-03T09:18:42;19.80;99.90
23186;DHT22;11761;51.324;4.590;2022-07-03T09:21:08;19.90;99.90
23186;DHT22;11761;51.324;4.590;2022-07-03T09:23:39;20.30;99.90
23186;DHT22;11761;51.324;4.590;2022-07-03T09:26:11;20.60;99.90
23186;DHT22;11761;51.324;4.590;2022-07-03T09:28:49;20.60;99.90
23186;DHT22;11761;51.324;4.590;2022-07-03T09:31:24;20.60;99.90
23186;DHT22;11761;51.324;4.590;2022-07-03T09:36:44;20.60;99.90
23186;DHT22;11761;51.324;4.590;2022-07-03T09:39:23;20.40;99.90
23186;DHT22;11761;51.324;4.590;2022-07-03T09:42:04;20.30;99.90
23186;DHT22;11761;51.324;4.590;2022-07-03T09:47:18;20.20;99.90
23186;DHT22;11761;51.324;4.590;2022-07-03T09:52:43;20.00;99.90
23186;DHT22;11761;51.324;4.590;2022-07-03T09:57:38;19.60;99.90
23186;DHT22;11761;51.324;4.590;2022-07-03T10:00:20;19.80;99.90
23186;DHT22;11761;51.324;4.590;2022-07-03T10:05:40;19.90;99.90
23186;DHT22;11761;51.324;4.590;2022-07-03T11:48:48;21.90;99.90
23186;DHT22;11761;51.324;4.590;2022-07-03T11:51:15;21.80;99.90
23186;DHT22;11761;51.324;4.590;2022-07-03T11:53:41;21.90;99.90
23186;DHT22;11761;51.324;4.590;2022-07-03T11:56:10;21.50;99.90
23186;DHT22;11761;51.324;4.590;2022-07-03T11:58:42;21.20;99.90
23186;DHT22;11761;51.324;4.590;2022-07-03T12:01:09;20.90;99.90
23186;DHT22;11761;51.324;4.590;2022-07-03T12:03:36;21.10;99.90
23186;DHT22;11761;51.324;4.590;2022-07-03T12:06:02;21.60;99.90
23186;DHT22;11761;51.324;4.590;2022-07-03T12:08:33;21.80;99.90
23186;DHT22;11761;51.324;4.590;2022-07-03T12:11:03;21.90;99.90
23186;DHT22;11761;51.324;4.590;2022-07-03T12:13:32;21.40;99.90
23186;DHT22;11761;51.324;4.590;2022-07-03T12:16:08;20.80;99.90
23186;DHT22;11761;51.324;4.590;2022-07-03T12:18:52;20.30;99.90
23186;DHT22;11761;51.324;4.590;2022-07-03T12:21:21;20.10;99.90
23186;DHT22;11761;51.324;4.590;2022-07-03T12:23:53;19.90;99.90
23186;DHT22;11761;51.324;4.590;2022-07-03T12:26:33;19.70;99.90
23186;DHT22;11761;51.324;4.590;2022-07-03T12:29:02;19.80;99.90
23186;DHT22;11761;51.324;4.590;2022-07-03T12:31:29;20.00;99.90
23186;DHT22;11761;51.324;4.590;2022-07-03T12:33:59;20.40;99.90
23186;DHT22;11761;51.324;4.590;2022-07-03T12:36:26;20.70;99.90
23186;DHT22;11761;51.324;4.590;2022-07-03T12:38:54;20.60;99.90
23186;DHT22;11761;51.324;4.590;2022-07-03T12:41:21;20.30;99.90
23186;DHT22;11761;51.324;4.590;2022-07-03T12:43:49;20.20;99.90
23186;DHT22;11761;51.324;4.590;2022-07-03T12:46:19;20.10;99.90
23186;DHT22;11761;51.324;4.590;2022-07-03T12:48:57;20.00;99.90
23186;DHT22;11761;51.324;4.590;2022-07-03T12:51:48;20.10;99.90
23186;DHT22;11761;51.324;4.590;2022-07-03T12:54:34;20.20;99.90
23186;DHT22;11761;51.324;4.590;2022-07-03T12:57:05;20.40;99.90
23186;DHT22;11761;51.324;4.590;2022-07-03T13:00:16;20.50;99.90
23186;DHT22;11761;51.324;4.590;2022-07-03T13:02:47;20.90;99.90
23186;DHT22;11761;51.324;4.590;2022-07-03T13:05:24;21.10;99.90
23186;DHT22;11761;51.324;4.590;2022-07-03T13:07:54;20.90;99.90
23186;DHT22;11761;51.324;4.590;2022-07-03T13:10:22;20.80;99.90
23186;DHT22;11761;51.324;4.590;2022-07-03T13:12:56;20.80;99.90
23186;DHT22;11761;51.324;4.590;2022-07-03T13:15:27;20.50;99.90
23186;DHT22;11761;51.324;4.590;2022-07-03T13:20:20;20.20;99.90
23186;DHT22;11761;51.324;4.590;2022-07-03T13:22:57;19.90;99.90
23186;DHT22;11761;51.324;4.590;2022-07-03T13:25:23;19.80;99.90
23186;DHT22;11761;51.324;4.590;2022-07-03T13:27:50;19.80;99.90
23186;DHT22;11761;51.324;4.590;2022-07-03T13:30:17;20.10;99.90
23186;DHT22;11761;51.324;4.590;2022-07-03T13:32:44;20.50;99.90
23186;DHT22;11761;51.324;4.590;2022-07-03T13:35:11;20.40;99.90
23186;DHT22;11761;51.324;4.590;2022-07-03T13:37:39;20.20;99.90
23186;DHT22;11761;51.324;4.590;2022-07-03T13:40:05;20.00;99.90
23186;DHT22;11761;51.324;4.590;2022-07-03T13:42:32;20.10;99.90
23186;DHT22;11761;51.324;4.590;2022-07-03T13:44:58;20.40;99.90
23186;DHT22;11761;51.324;4.590;2022-07-03T13:47:24;20.60;99.90
23186;DHT22;11761;51.324;4.590;2022-07-03T13:49:50;20.70;99.90
23186;DHT22;11761;51.324;4.590;2022-07-03T13:52:18;20.80;99.90
23186;DHT22;11761;51.324;4.590;2022-07-03T13:54:44;20.90;99.90
23186;DHT22;11761;51.324;4.590;2022-07-03T13:57:11;21.00;99.90
23186;DHT22;11761;51.324;4.590;2022-07-03T13:59:38;20.90;99.90
23186;DHT22;11761;51.324;4.590;2022-07-03T14:02:04;20.60;99.90
23186;DHT22;11761;51.324;4.590;2022-07-03T14:04:31;20.60;99.90
23186;DHT22;11761;51.324;4.590;2022-07-03T14:06:57;20.50;99.90
23186;DHT22;11761;51.324;4.590;2022-07-03T14:09:24;20.70;99.90
23186;DHT22;11761;51.324;4.590;2022-07-03T14:11:51;20.70;99.90
23186;DHT22;11761;51.324;4.590;2022-07-03T14:14:17;20.60;99.90
23186;DHT22;11761;51.324;4.590;2022-07-03T14:16:43;20.50;99.90
23186;DHT22;11761;51.324;4.590;2022-07-03T14:19:09;20.30;99.90
23186;DHT22;11761;51.324;4.590;2022-07-03T14:21:36;20.30;99.90
23186;DHT22;11761;51.324;4.590;2022-07-03T14:24:02;20.50;99.90
23186;DHT22;11761;51.324;4.590;2022-07-03T14:26:28;20.60;99.90
23186;DHT22;11761;51.324;4.590;2022-07-03T14:29:13;20.60;99.90
23186;DHT22;11761;51.324;4.590;2022-07-03T14:31:58;20.80;99.90
23186;DHT22;11761;51.324;4.590;2022-07-03T14:34:43;20.80;99.90
23186;DHT22;11761;51.324;4.590;2022-07-03T14:37:09;20.80;99.90
23186;DHT22;11761;51.324;4.590;2022-07-03T14:39:36;20.80;99.90
23186;DHT22;11761;51.324;4.590;2022-07-03T14:42:02;20.80;99.90
23186;DHT22;11761;51.324;4.590;2022-07-03T14:44:29;20.60;99.90
23186;DHT22;11761;51.324;4.590;2022-07-03T14:46:56;20.30;99.90
23186;DHT22;11761;51.324;4.590;2022-07-03T14:49:42;20.40;99.90
23186;DHT22;11761;51.324;4.590;2022-07-03T14:52:08;20.50;99.90
23186;DHT22;11761;51.324;4.590;2022-07-03T14:54:35;20.40;99.90
23186;DHT22;11761;51.324;4.590;2022-07-03T14:57:06;20.00;99.90
23186;DHT22;11761;51.324;4.590;2022-07-03T15:00:05;20.00;99.90
23186;DHT22;11761;51.324;4.590;2022-07-03T15:05:27;20.20;99.90
23186;DHT22;11761;51.324;4.590;2022-07-03T15:11:55;20.80;99.90
23186;DHT22;11761;51.324;4.590;2022-07-03T15:14:14;20.70;99.90
23186;DHT22;11761;51.324;4.590;2022-07-03T15:16:42;20.60;99.90
23186;DHT22;11761;51.324;4.590;2022-07-03T15:19:10;20.50;99.90
23186;DHT22;11761;51.324;4.590;2022-07-03T15:21:37;20.20;99.90
23186;DHT22;11761;51.324;4.590;2022-07-03T15:24:06;20.00;99.90
23186;DHT22;11761;51.324;4.590;2022-07-03T15:26:33;19.90;99.90
23186;DHT22;11761;51.324;4.590;2022-07-03T15:29:01;20.00;99.90
23186;DHT22;11761;51.324;4.590;2022-07-03T15:31:29;20.30;99.90
23186;DHT22;11761;51.324;4.590;2022-07-03T15:34:04;20.60;99.90
23186;DHT22;11761;51.324;4.590;2022-07-03T15:36:38;20.60;99.90
23186;DHT22;11761;51.324;4.590;2022-07-03T15:39:08;20.50;99.90
23186;DHT22;11761;51.324;4.590;2022-07-03T15:41:47;20.50;99.90
23186;DHT22;11761;51.324;4.590;2022-07-03T15:44:25;20.60;99.90
23186;DHT22;11761;51.324;4.590;2022-07-03T15:49:42;20.20;99.90
23186;DHT22;11761;51.324;4.590;2022-07-03T15:52:18;20.00;99.90
23186;DHT22;11761;51.324;4.590;2022-07-03T15:55:05;19.90;99.90
23186;DHT22;11761;51.324;4.590;2022-07-03T15:57:49;19.90;99.90
23186;DHT22;11761;51.324;4.590;2022-07-03T16:00:23;19.90;99.90
23186;DHT22;11761;51.324;4.590;2022-07-03T16:03:10;20.20;99.90
23186;DHT22;11761;51.324;4.590;2022-07-03T16:05:38;20.50;99.90
23186;DHT22;11761;51.324;4.590;2022-07-03T16:08:07;20.50;99.90
23186;DHT22;11761;51.324;4.590;2022-07-03T16:10:35;20.40;99.90
23186;DHT22;11761;51.324;4.590;2022-07-03T16:13:03;20.50;99.90
23186;DHT22;11761;51.324;4.590;2022-07-03T16:15:44;20.50;99.90
23186;DHT22;11761;51.324;4.590;2022-07-03T16:18:12;20.20;99.90
23186;DHT22;11761;51.324;4.590;2022-07-03T16:20:39;20.10;99.90
23186;DHT22;11761;51.324;4.590;2022-07-03T16:23:08;20.10;99.90
23186;DHT22;11761;51.324;4.590;2022-07-03T16:25:35;20.10;99.90
23186;DHT22;11761;51.324;4.590;2022-07-03T16:28:06;20.10;99.90
23186;DHT22;11761;51.324;4.590;2022-07-03T16:30:35;20.10;99.90
23186;DHT22;11761;51.324;4.590;2022-07-03T16:33:03;20.00;99.90
23186;DHT22;11761;51.324;4.590;2022-07-03T16:35:52;20.00;99.90
23186;DHT22;11761;51.324;4.590;2022-07-03T16:38:38;20.00;99.90
23186;DHT22;11761;51.324;4.590;2022-07-03T16:41:06;20.00;99.90
23186;DHT22;11761;51.324;4.590;2022-07-03T16:43:39;19.90;99.90
23186;DHT22;11761;51.324;4.590;2022-07-03T16:46:09;19.90;99.90
23186;DHT22;11761;51.324;4.590;2022-07-03T16:48:43;19.90;99.90
23186;DHT22;11761;51.324;4.590;2022-07-03T16:51:14;19.80;99.90
23186;DHT22;11761;51.324;4.590;2022-07-03T16:53:41;19.80;99.90
23186;DHT22;11761;51.324;4.590;2022-07-03T16:56:08;19.90;99.90
23186;DHT22;11761;51.324;4.590;2022-07-03T16:58:34;19.90;99.90
23186;DHT22;11761;51.324;4.590;2022-07-03T17:01:06;19.90;99.90
23186;DHT22;11761;51.324;4.590;2022-07-03T17:03:33;19.80;99.90
23186;DHT22;11761;51.324;4.590;2022-07-03T17:06:02;19.80;99.90
23186;DHT22;11761;51.324;4.590;2022-07-03T17:08:29;19.90;99.90
23186;DHT22;11761;51.324;4.590;2022-07-03T17:10:57;19.90;99.90
23186;DHT22;11761;51.324;4.590;2022-07-03T17:13:23;19.80;99.90
23186;DHT22;11761;51.324;4.590;2022-07-03T17:15:52;19.90;99.90
23186;DHT22;11761;51.324;4.590;2022-07-03T17:18:25;19.90;99.90
23186;DHT22;11761;51.324;4.590;2022-07-03T17:20:59;19.90;99.90
23186;DHT22;11761;51.324;4.590;2022-07-03T17:23:27;19.90;99.90
23186;DHT22;11761;51.324;4.590;2022-07-03T17:26:01;19.70;99.90
23186;DHT22;11761;51.324;4.590;2022-07-03T17:28:34;19.70;99.90
23186;DHT22;11761;51.324;4.590;2022-07-03T17:31:05;19.60;99.90
23186;DHT22;11761;51.324;4.590;2022-07-03T17:33:34;19.70;99.90
23186;DHT22;11761;51.324;4.590;2022-07-03T17:36:03;19.70;99.90
23186;DHT22;11761;51.324;4.590;2022-07-03T17:38:33;19.70;99.90
23186;DHT22;11761;51.324;4.590;2022-07-03T17:41:00;19.80;99.90
23186;DHT22;11761;51.324;4.590;2022-07-03T17:43:28;19.70;99.90
23186;DHT22;11761;51.324;4.590;2022-07-03T17:45:56;19.70;99.90
23186;DHT22;11761;51.324;4.590;2022-07-03T17:48:24;19.60;99.90
23186;DHT22;11761;51.324;4.590;2022-07-03T17:50:51;19.50;99.90
23186;DHT22;11761;51.324;4.590;2022-07-03T17:53:21;19.60;99.90
23186;DHT22;11761;51.324;4.590;2022-07-03T17:55:48;19.60;99.90
23186;DHT22;11761;51.324;4.590;2022-07-03T17:58:15;19.50;99.90
23186;DHT22;11761;51.324;4.590;2022-07-03T18:00:41;19.40;99.90
23186;DHT22;11761;51.324;4.590;2022-07-03T18:03:10;19.40;99.90
23186;DHT22;11761;51.324;4.590;2022-07-03T18:05:43;19.30;99.90
